sensor_id;sensor_type;location;lat;lon;timestamp;P1;durP1;ratioP1;P2;durP2;ratioP2
42198;SDS011;27868;45.184;5.786;2022-12-18T00:02:36;36.83;;;18.00;;
42198;SDS011;27868;45.184;5.786;2022-12-18T00:05:21;33.97;;;17.88;;
42198;SDS011;27868;45.184;5.786;2022-12-18T00:08:06;36.22;;;16.50;;
42198;SDS011;27868;45.184;5.786;2022-12-18T00:10:52;29.17;;;14.50;;
42198;SDS011;27868;45.184;5.786;2022-12-18T00:13:37;34.95;;;14.77;;
42198;SDS011;27868;45.184;5.786;2022-12-18T00:16:23;32.83;;;14.30;;
42198;SDS011;27868;45.184;5.786;2022-12-18T00:19:09;30.73;;;14.40;;
42198;SDS011;27868;45.184;5.786;2022-12-18T00:21:54;35.88;;;15.88;;
42198;SDS011;27868;45.184;5.786;2022-12-18T00:24:39;34.03;;;15.45;;
42198;SDS011;27868;45.184;5.786;2022-12-18T00:27:25;41.00;;;17.27;;
42198;SDS011;27868;45.184;5.786;2022-12-18T00:30:10;32.90;;;17.85;;
42198;SDS011;27868;45.184;5.786;2022-12-18T00:32:56;34.65;;;16.42;;
42198;SDS011;27868;45.184;5.786;2022-12-18T00:35:41;32.22;;;15.85;;
42198;SDS011;27868;45.184;5.786;2022-12-18T00:38:26;36.92;;;17.70;;
42198;SDS011;27868;45.184;5.786;2022-12-18T00:41:12;33.30;;;15.32;;
42198;SDS011;27868;45.184;5.786;2022-12-18T00:44:19;32.15;;;16.13;;
42198;SDS011;27868;45.184;5.786;2022-12-18T00:47:03;31.40;;;15.75;;
42198;SDS011;27868;45.184;5.786;2022-12-18T00:49:49;33.35;;;15.75;;
42198;SDS011;27868;45.184;5.786;2022-12-18T00:52:37;31.77;;;15.15;;
42198;SDS011;27868;45.184;5.786;2022-12-18T00:55:22;29.25;;;15.07;;
42198;SDS011;27868;45.184;5.786;2022-12-18T00:58:09;31.80;;;15.32;;
42198;SDS011;27868;45.184;5.786;2022-12-18T01:00:54;33.20;;;16.35;;
42198;SDS011;27868;45.184;5.786;2022-12-18T01:03:41;31.67;;;15.85;;
42198;SDS011;27868;45.184;5.786;2022-12-18T01:06:29;31.83;;;16.23;;
42198;SDS011;27868;45.184;5.786;2022-12-18T01:09:15;34.58;;;15.90;;
42198;SDS011;27868;45.184;5.786;2022-12-18T01:12:00;29.75;;;14.23;;
42198;SDS011;27868;45.184;5.786;2022-12-18T01:14:47;31.42;;;15.50;;
42198;SDS011;27868;45.184;5.786;2022-12-18T01:17:41;30.50;;;14.27;;
42198;SDS011;27868;45.184;5.786;2022-12-18T01:20:26;29.38;;;14.10;;
42198;SDS011;27868;45.184;5.786;2022-12-18T01:23:14;31.45;;;15.63;;
42198;SDS011;27868;45.184;5.786;2022-12-18T01:26:29;29.95;;;14.73;;
42198;SDS011;27868;45.184;5.786;2022-12-18T01:29:14;31.80;;;13.80;;
42198;SDS011;27868;45.184;5.786;2022-12-18T01:32:02;26.10;;;14.00;;
42198;SDS011;27868;45.184;5.786;2022-12-18T01:34:54;28.67;;;13.75;;
42198;SDS011;27868;45.184;5.786;2022-12-18T01:37:39;24.98;;;11.75;;
42198;SDS011;27868;45.184;5.786;2022-12-18T01:40:29;20.88;;;9.45;;
42198;SDS011;27868;45.184;5.786;2022-12-18T01:43:19;20.63;;;9.90;;
42198;SDS011;27868;45.184;5.786;2022-12-18T01:46:30;20.20;;;9.35;;
42198;SDS011;27868;45.184;5.786;2022-12-18T01:49:17;17.60;;;8.93;;
42198;SDS011;27868;45.184;5.786;2022-12-18T01:52:17;14.93;;;7.45;;
42198;SDS011;27868;45.184;5.786;2022-12-18T01:55:07;14.30;;;7.05;;
42198;SDS011;27868;45.184;5.786;2022-12-18T01:57:54;17.40;;;8.35;;
42198;SDS011;27868;45.184;5.786;2022-12-18T02:00:43;15.25;;;7.80;;
42198;SDS011;27868;45.184;5.786;2022-12-18T02:03:32;20.40;;;7.93;;
42198;SDS011;27868;45.184;5.786;2022-12-18T02:06:21;16.25;;;7.70;;
42198;SDS011;27868;45.184;5.786;2022-12-18T02:09:41;15.60;;;7.80;;
42198;SDS011;27868;45.184;5.786;2022-12-18T02:12:42;17.45;;;8.27;;
42198;SDS011;27868;45.184;5.786;2022-12-18T02:15:36;16.33;;;8.65;;
42198;SDS011;27868;45.184;5.786;2022-12-18T02:18:38;15.07;;;7.72;;
42198;SDS011;27868;45.184;5.786;2022-12-18T02:21:35;16.30;;;7.72;;
42198;SDS011;27868;45.184;5.786;2022-12-18T02:28:20;15.60;;;7.07;;
42198;SDS011;27868;45.184;5.786;2022-12-18T02:31:27;14.32;;;6.70;;
42198;SDS011;27868;45.184;5.786;2022-12-18T02:34:23;17.08;;;7.75;;
42198;SDS011;27868;45.184;5.786;2022-12-18T02:37:19;17.05;;;8.70;;
42198;SDS011;27868;45.184;5.786;2022-12-18T02:43:08;19.60;;;10.10;;
42198;SDS011;27868;45.184;5.786;2022-12-18T02:46:25;22.83;;;11.57;;
42198;SDS011;27868;45.184;5.786;2022-12-18T02:52:33;23.08;;;11.32;;
42198;SDS011;27868;45.184;5.786;2022-12-18T02:59:02;25.07;;;12.03;;
42198;SDS011;27868;45.184;5.786;2022-12-18T03:02:08;25.13;;;12.00;;
42198;SDS011;27868;45.184;5.786;2022-12-18T03:05:48;24.52;;;11.60;;
42198;SDS011;27868;45.184;5.786;2022-12-18T03:08:43;24.75;;;12.07;;
42198;SDS011;27868;45.184;5.786;2022-12-18T03:11:37;21.75;;;11.48;;
42198;SDS011;27868;45.184;5.786;2022-12-18T03:14:49;25.05;;;11.65;;
42198;SDS011;27868;45.184;5.786;2022-12-18T03:18:17;24.17;;;11.40;;
42198;SDS011;27868;45.184;5.786;2022-12-18T03:21:58;22.95;;;11.55;;
42198;SDS011;27868;45.184;5.786;2022-12-18T03:24:50;20.77;;;11.05;;
42198;SDS011;27868;45.184;5.786;2022-12-18T03:27:46;22.73;;;11.10;;
42198;SDS011;27868;45.184;5.786;2022-12-18T03:31:35;23.27;;;12.00;;
42198;SDS011;27868;45.184;5.786;2022-12-18T03:34:55;27.55;;;12.23;;
42198;SDS011;27868;45.184;5.786;2022-12-18T03:37:49;23.02;;;11.77;;
42198;SDS011;27868;45.184;5.786;2022-12-18T03:55:51;24.25;;;11.88;;
42198;SDS011;27868;45.184;5.786;2022-12-18T03:59:32;24.77;;;12.23;;
42198;SDS011;27868;45.184;5.786;2022-12-18T04:03:27;24.63;;;11.90;;
42198;SDS011;27868;45.184;5.786;2022-12-18T04:07:28;22.23;;;10.50;;
42198;SDS011;27868;45.184;5.786;2022-12-18T04:11:09;24.63;;;11.45;;
42198;SDS011;27868;45.184;5.786;2022-12-18T04:14:20;23.63;;;11.88;;
42198;SDS011;27868;45.184;5.786;2022-12-18T04:18:08;21.67;;;10.32;;
42198;SDS011;27868;45.184;5.786;2022-12-18T04:21:25;24.10;;;10.65;;
42198;SDS011;27868;45.184;5.786;2022-12-18T04:24:39;23.10;;;10.52;;
42198;SDS011;27868;45.184;5.786;2022-12-18T04:28:06;25.80;;;11.57;;
42198;SDS011;27868;45.184;5.786;2022-12-18T04:31:22;18.70;;;10.07;;
42198;SDS011;27868;45.184;5.786;2022-12-18T04:34:54;20.17;;;10.05;;
42198;SDS011;27868;45.184;5.786;2022-12-18T04:38:51;18.55;;;9.50;;
42198;SDS011;27868;45.184;5.786;2022-12-18T04:46:11;18.63;;;9.85;;
42198;SDS011;27868;45.184;5.786;2022-12-18T04:52:54;22.80;;;10.40;;
42198;SDS011;27868;45.184;5.786;2022-12-18T04:56:19;20.60;;;9.80;;
42198;SDS011;27868;45.184;5.786;2022-12-18T04:59:54;18.05;;;9.15;;
42198;SDS011;27868;45.184;5.786;2022-12-18T05:07:54;19.92;;;8.98;;
42198;SDS011;27868;45.184;5.786;2022-12-18T05:11:45;18.75;;;9.10;;
42198;SDS011;27868;45.184;5.786;2022-12-18T05:16:00;17.42;;;8.73;;
42198;SDS011;27868;45.184;5.786;2022-12-18T05:19:54;19.17;;;9.38;;
42198;SDS011;27868;45.184;5.786;2022-12-18T05:23:45;20.05;;;9.50;;
42198;SDS011;27868;45.184;5.786;2022-12-18T05:27:41;18.08;;;9.43;;
42198;SDS011;27868;45.184;5.786;2022-12-18T05:31:31;30.27;;;9.20;;
42198;SDS011;27868;45.184;5.786;2022-12-18T05:35:16;23.10;;;9.63;;
42198;SDS011;27868;45.184;5.786;2022-12-18T05:42:55;42.05;;;9.82;;
42198;SDS011;27868;45.184;5.786;2022-12-18T05:46:42;19.77;;;9.95;;
42198;SDS011;27868;45.184;5.786;2022-12-18T05:54:31;17.38;;;9.13;;
42198;SDS011;27868;45.184;5.786;2022-12-18T05:58:50;15.18;;;7.10;;
42198;SDS011;27868;45.184;5.786;2022-12-18T06:02:47;13.82;;;7.00;;
42198;SDS011;27868;45.184;5.786;2022-12-18T06:10:31;11.68;;;5.43;;
42198;SDS011;27868;45.184;5.786;2022-12-18T06:14:49;12.65;;;6.20;;
42198;SDS011;27868;45.184;5.786;2022-12-18T06:22:19;15.98;;;6.97;;
42198;SDS011;27868;45.184;5.786;2022-12-18T06:29:36;11.52;;;6.20;;
42198;SDS011;27868;45.184;5.786;2022-12-18T06:33:30;12.95;;;6.63;;
42198;SDS011;27868;45.184;5.786;2022-12-18T06:36:57;14.25;;;6.90;;
42198;SDS011;27868;45.184;5.786;2022-12-18T06:40:40;16.38;;;6.75;;
42198;SDS011;27868;45.184;5.786;2022-12-18T06:44:38;14.40;;;6.65;;
42198;SDS011;27868;45.184;5.786;2022-12-18T06:48:36;15.05;;;6.50;;
42198;SDS011;27868;45.184;5.786;2022-12-18T06:52:08;15.45;;;6.95;;
42198;SDS011;27868;45.184;5.786;2022-12-18T06:55:31;12.80;;;6.03;;
42198;SDS011;27868;45.184;5.786;2022-12-18T06:59:25;13.57;;;6.68;;
42198;SDS011;27868;45.184;5.786;2022-12-18T07:02:52;18.92;;;8.15;;
42198;SDS011;27868;45.184;5.786;2022-12-18T07:09:26;19.55;;;8.27;;
42198;SDS011;27868;45.184;5.786;2022-12-18T07:12:29;22.23;;;10.13;;
42198;SDS011;27868;45.184;5.786;2022-12-18T07:15:19;18.33;;;8.93;;
42198;SDS011;27868;45.184;5.786;2022-12-18T07:18:04;18.42;;;9.98;;
42198;SDS011;27868;45.184;5.786;2022-12-18T07:20:55;20.20;;;10.00;;
42198;SDS011;27868;45.184;5.786;2022-12-18T07:23:47;25.42;;;12.20;;
42198;SDS011;27868;45.184;5.786;2022-12-18T07:26:39;24.35;;;11.88;;
42198;SDS011;27868;45.184;5.786;2022-12-18T07:29:25;25.00;;;11.55;;
42198;SDS011;27868;45.184;5.786;2022-12-18T07:32:10;20.50;;;10.60;;
42198;SDS011;27868;45.184;5.786;2022-12-18T07:34:54;21.75;;;10.68;;
42198;SDS011;27868;45.184;5.786;2022-12-18T07:37:41;21.00;;;10.45;;
42198;SDS011;27868;45.184;5.786;2022-12-18T07:40:26;22.73;;;10.63;;
42198;SDS011;27868;45.184;5.786;2022-12-18T07:43:10;20.25;;;9.70;;
42198;SDS011;27868;45.184;5.786;2022-12-18T07:45:55;18.77;;;9.75;;
42198;SDS011;27868;45.184;5.786;2022-12-18T07:48:40;19.35;;;9.77;;
42198;SDS011;27868;45.184;5.786;2022-12-18T07:51:26;22.73;;;10.18;;
42198;SDS011;27868;45.184;5.786;2022-12-18T07:54:11;21.77;;;9.90;;
42198;SDS011;27868;45.184;5.786;2022-12-18T07:56:56;24.15;;;10.70;;
42198;SDS011;27868;45.184;5.786;2022-12-18T07:59:41;21.27;;;10.90;;
42198;SDS011;27868;45.184;5.786;2022-12-18T08:02:26;21.65;;;10.43;;
42198;SDS011;27868;45.184;5.786;2022-12-18T08:05:10;21.92;;;10.52;;
42198;SDS011;27868;45.184;5.786;2022-12-18T08:07:55;22.88;;;10.18;;
42198;SDS011;27868;45.184;5.786;2022-12-18T08:10:40;20.33;;;10.20;;
42198;SDS011;27868;45.184;5.786;2022-12-18T08:13:25;24.17;;;10.38;;
42198;SDS011;27868;45.184;5.786;2022-12-18T08:16:10;21.48;;;11.02;;
42198;SDS011;27868;45.184;5.786;2022-12-18T08:18:55;22.75;;;11.10;;
42198;SDS011;27868;45.184;5.786;2022-12-18T08:21:40;18.63;;;9.73;;
42198;SDS011;27868;45.184;5.786;2022-12-18T08:24:24;18.40;;;10.43;;
42198;SDS011;27868;45.184;5.786;2022-12-18T08:27:09;21.15;;;10.48;;
42198;SDS011;27868;45.184;5.786;2022-12-18T08:29:54;21.10;;;10.80;;
42198;SDS011;27868;45.184;5.786;2022-12-18T08:32:39;26.00;;;11.57;;
42198;SDS011;27868;45.184;5.786;2022-12-18T08:35:23;24.13;;;12.98;;
42198;SDS011;27868;45.184;5.786;2022-12-18T08:38:08;27.73;;;14.38;;
42198;SDS011;27868;45.184;5.786;2022-12-18T08:40:59;30.45;;;14.70;;
42198;SDS011;27868;45.184;5.786;2022-12-18T08:43:44;32.55;;;14.75;;
42198;SDS011;27868;45.184;5.786;2022-12-18T08:46:48;35.47;;;14.13;;
42198;SDS011;27868;45.184;5.786;2022-12-18T08:49:32;52.20;;;13.55;;
42198;SDS011;27868;45.184;5.786;2022-12-18T08:52:18;51.88;;;13.40;;
42198;SDS011;27868;45.184;5.786;2022-12-18T08:55:03;52.70;;;14.20;;
42198;SDS011;27868;45.184;5.786;2022-12-18T08:57:48;32.08;;;13.80;;
42198;SDS011;27868;45.184;5.786;2022-12-18T09:00:34;26.85;;;13.23;;
42198;SDS011;27868;45.184;5.786;2022-12-18T09:03:19;27.20;;;12.40;;
42198;SDS011;27868;45.184;5.786;2022-12-18T09:06:06;35.28;;;12.18;;
42198;SDS011;27868;45.184;5.786;2022-12-18T09:08:51;22.00;;;12.20;;
42198;SDS011;27868;45.184;5.786;2022-12-18T09:11:36;20.27;;;10.70;;
42198;SDS011;27868;45.184;5.786;2022-12-18T09:14:21;24.13;;;12.93;;
42198;SDS011;27868;45.184;5.786;2022-12-18T09:17:06;26.23;;;13.00;;
42198;SDS011;27868;45.184;5.786;2022-12-18T09:19:50;22.75;;;12.73;;
42198;SDS011;27868;45.184;5.786;2022-12-18T09:22:35;28.90;;;13.98;;
42198;SDS011;27868;45.184;5.786;2022-12-18T09:25:20;29.92;;;15.35;;
42198;SDS011;27868;45.184;5.786;2022-12-18T09:28:06;29.10;;;14.85;;
42198;SDS011;27868;45.184;5.786;2022-12-18T09:30:54;34.70;;;16.40;;
42198;SDS011;27868;45.184;5.786;2022-12-18T09:33:38;33.45;;;16.70;;
42198;SDS011;27868;45.184;5.786;2022-12-18T09:36:23;35.40;;;16.75;;
42198;SDS011;27868;45.184;5.786;2022-12-18T09:39:09;31.27;;;15.38;;
42198;SDS011;27868;45.184;5.786;2022-12-18T09:41:54;35.97;;;16.55;;
42198;SDS011;27868;45.184;5.786;2022-12-18T09:44:43;35.38;;;16.83;;
42198;SDS011;27868;45.184;5.786;2022-12-18T09:47:35;35.25;;;16.73;;
42198;SDS011;27868;45.184;5.786;2022-12-18T09:50:36;35.92;;;16.98;;
42198;SDS011;27868;45.184;5.786;2022-12-18T09:53:24;36.10;;;16.92;;
42198;SDS011;27868;45.184;5.786;2022-12-18T09:56:12;38.85;;;17.23;;
42198;SDS011;27868;45.184;5.786;2022-12-18T09:59:03;31.85;;;15.63;;
42198;SDS011;27868;45.184;5.786;2022-12-18T10:01:49;34.58;;;17.27;;
42198;SDS011;27868;45.184;5.786;2022-12-18T10:04:34;31.13;;;16.10;;
42198;SDS011;27868;45.184;5.786;2022-12-18T10:07:21;32.83;;;16.98;;
42198;SDS011;27868;45.184;5.786;2022-12-18T10:10:45;29.27;;;15.05;;
42198;SDS011;27868;45.184;5.786;2022-12-18T10:13:45;34.30;;;16.05;;
42198;SDS011;27868;45.184;5.786;2022-12-18T10:16:40;29.60;;;14.40;;
42198;SDS011;27868;45.184;5.786;2022-12-18T10:19:43;32.50;;;16.60;;
42198;SDS011;27868;45.184;5.786;2022-12-18T10:22:53;34.53;;;16.40;;
42198;SDS011;27868;45.184;5.786;2022-12-18T10:28:46;24.83;;;13.27;;
42198;SDS011;27868;45.184;5.786;2022-12-18T10:31:31;24.73;;;11.73;;
42198;SDS011;27868;45.184;5.786;2022-12-18T10:34:16;26.52;;;13.23;;
42198;SDS011;27868;45.184;5.786;2022-12-18T10:37:00;27.67;;;13.98;;
42198;SDS011;27868;45.184;5.786;2022-12-18T10:40:07;31.00;;;15.07;;
42198;SDS011;27868;45.184;5.786;2022-12-18T10:43:42;31.83;;;15.80;;
42198;SDS011;27868;45.184;5.786;2022-12-18T10:48:52;28.77;;;14.15;;
42198;SDS011;27868;45.184;5.786;2022-12-18T10:51:39;25.33;;;11.65;;
42198;SDS011;27868;45.184;5.786;2022-12-18T10:54:24;21.88;;;12.00;;
42198;SDS011;27868;45.184;5.786;2022-12-18T11:03:28;27.08;;;12.75;;
42198;SDS011;27868;45.184;5.786;2022-12-18T11:06:17;26.08;;;12.52;;
42198;SDS011;27868;45.184;5.786;2022-12-18T11:09:08;20.85;;;10.40;;
42198;SDS011;27868;45.184;5.786;2022-12-18T11:12:18;20.08;;;8.93;;
42198;SDS011;27868;45.184;5.786;2022-12-18T11:15:13;19.17;;;9.95;;
42198;SDS011;27868;45.184;5.786;2022-12-18T11:18:02;22.73;;;10.90;;
42198;SDS011;27868;45.184;5.786;2022-12-18T11:20:53;23.08;;;11.38;;
42198;SDS011;27868;45.184;5.786;2022-12-18T11:23:47;22.75;;;12.15;;
42198;SDS011;27868;45.184;5.786;2022-12-18T11:26:34;21.55;;;11.90;;
42198;SDS011;27868;45.184;5.786;2022-12-18T11:29:23;23.08;;;11.70;;
42198;SDS011;27868;45.184;5.786;2022-12-18T11:32:24;20.58;;;11.10;;
42198;SDS011;27868;45.184;5.786;2022-12-18T11:35:16;20.23;;;10.90;;
42198;SDS011;27868;45.184;5.786;2022-12-18T11:38:22;22.45;;;11.60;;
42198;SDS011;27868;45.184;5.786;2022-12-18T11:41:31;19.05;;;10.30;;
42198;SDS011;27868;45.184;5.786;2022-12-18T11:48:01;20.35;;;10.43;;
42198;SDS011;27868;45.184;5.786;2022-12-18T11:50:53;22.25;;;10.77;;
42198;SDS011;27868;45.184;5.786;2022-12-18T11:53:40;20.35;;;11.48;;
42198;SDS011;27868;45.184;5.786;2022-12-18T12:02:42;21.23;;;10.60;;
42198;SDS011;27868;45.184;5.786;2022-12-18T12:12:30;19.30;;;9.57;;
42198;SDS011;27868;45.184;5.786;2022-12-18T12:22:45;16.48;;;7.78;;
42198;SDS011;27868;45.184;5.786;2022-12-18T12:26:11;15.48;;;7.82;;
42198;SDS011;27868;45.184;5.786;2022-12-18T12:29:23;13.57;;;7.53;;
42198;SDS011;27868;45.184;5.786;2022-12-18T12:44:12;12.98;;;5.70;;
42198;SDS011;27868;45.184;5.786;2022-12-18T12:52:07;10.05;;;4.82;;
42198;SDS011;27868;45.184;5.786;2022-12-18T12:56:08;9.38;;;5.03;;
42198;SDS011;27868;45.184;5.786;2022-12-18T13:00:13;7.60;;;4.28;;
42198;SDS011;27868;45.184;5.786;2022-12-18T13:04:34;10.35;;;5.40;;
42198;SDS011;27868;45.184;5.786;2022-12-18T13:07:56;12.85;;;6.10;;
42198;SDS011;27868;45.184;5.786;2022-12-18T13:11:03;9.77;;;5.95;;
42198;SDS011;27868;45.184;5.786;2022-12-18T13:14:40;11.18;;;6.78;;
42198;SDS011;27868;45.184;5.786;2022-12-18T13:17:30;11.83;;;6.93;;
42198;SDS011;27868;45.184;5.786;2022-12-18T13:20:21;13.07;;;6.32;;
42198;SDS011;27868;45.184;5.786;2022-12-18T13:23:23;14.35;;;6.68;;
42198;SDS011;27868;45.184;5.786;2022-12-18T13:26:35;13.15;;;6.57;;
42198;SDS011;27868;45.184;5.786;2022-12-18T13:34:39;13.52;;;6.80;;
42198;SDS011;27868;45.184;5.786;2022-12-18T13:38:18;11.05;;;6.10;;
42198;SDS011;27868;45.184;5.786;2022-12-18T13:45:41;11.57;;;5.95;;
42198;SDS011;27868;45.184;5.786;2022-12-18T13:49:44;8.98;;;4.85;;
42198;SDS011;27868;45.184;5.786;2022-12-18T13:53:33;10.52;;;5.28;;
42198;SDS011;27868;45.184;5.786;2022-12-18T14:00:31;8.18;;;4.03;;
42198;SDS011;27868;45.184;5.786;2022-12-18T14:03:25;7.47;;;3.72;;
42198;SDS011;27868;45.184;5.786;2022-12-18T14:06:19;6.38;;;3.50;;
42198;SDS011;27868;45.184;5.786;2022-12-18T14:09:37;8.20;;;3.88;;
42198;SDS011;27868;45.184;5.786;2022-12-18T14:13:10;7.65;;;3.90;;
42198;SDS011;27868;45.184;5.786;2022-12-18T14:16:49;6.30;;;3.60;;
42198;SDS011;27868;45.184;5.786;2022-12-18T14:27:36;8.40;;;3.75;;
42198;SDS011;27868;45.184;5.786;2022-12-18T14:31:31;5.90;;;3.25;;
42198;SDS011;27868;45.184;5.786;2022-12-18T14:35:18;7.95;;;3.88;;
42198;SDS011;27868;45.184;5.786;2022-12-18T14:38:40;7.93;;;4.15;;
42198;SDS011;27868;45.184;5.786;2022-12-18T14:42:01;7.63;;;3.70;;
42198;SDS011;27868;45.184;5.786;2022-12-18T14:52:38;12.07;;;5.95;;
42198;SDS011;27868;45.184;5.786;2022-12-18T14:56:04;8.13;;;4.78;;
42198;SDS011;27868;45.184;5.786;2022-12-18T14:59:26;9.40;;;4.78;;
42198;SDS011;27868;45.184;5.786;2022-12-18T15:02:22;9.50;;;6.00;;
42198;SDS011;27868;45.184;5.786;2022-12-18T15:05:20;10.70;;;5.78;;
42198;SDS011;27868;45.184;5.786;2022-12-18T15:08:34;9.35;;;5.25;;
42198;SDS011;27868;45.184;5.786;2022-12-18T15:11:47;8.82;;;4.82;;
42198;SDS011;27868;45.184;5.786;2022-12-18T15:15:05;7.55;;;4.03;;
42198;SDS011;27868;45.184;5.786;2022-12-18T15:21:09;6.88;;;3.55;;
42198;SDS011;27868;45.184;5.786;2022-12-18T15:24:13;5.93;;;3.08;;
42198;SDS011;27868;45.184;5.786;2022-12-18T15:27:05;5.82;;;3.53;;
42198;SDS011;27868;45.184;5.786;2022-12-18T15:30:19;7.57;;;3.38;;
42198;SDS011;27868;45.184;5.786;2022-12-18T15:33:16;7.68;;;4.05;;
42198;SDS011;27868;45.184;5.786;2022-12-18T15:36:19;7.85;;;4.07;;
42198;SDS011;27868;45.184;5.786;2022-12-18T15:39:10;8.88;;;4.70;;
42198;SDS011;27868;45.184;5.786;2022-12-18T15:42:18;10.27;;;5.32;;
42198;SDS011;27868;45.184;5.786;2022-12-18T15:45:23;9.73;;;5.10;;
42198;SDS011;27868;45.184;5.786;2022-12-18T15:48:17;11.88;;;5.80;;
42198;SDS011;27868;45.184;5.786;2022-12-18T15:51:13;12.25;;;6.18;;
42198;SDS011;27868;45.184;5.786;2022-12-18T15:54:18;11.10;;;6.03;;
42198;SDS011;27868;45.184;5.786;2022-12-18T15:57:23;10.82;;;5.65;;
42198;SDS011;27868;45.184;5.786;2022-12-18T16:00:11;9.23;;;5.78;;
42198;SDS011;27868;45.184;5.786;2022-12-18T16:02:58;12.48;;;6.85;;
42198;SDS011;27868;45.184;5.786;2022-12-18T16:05:44;12.25;;;7.13;;
42198;SDS011;27868;45.184;5.786;2022-12-18T16:09:04;13.88;;;7.32;;
42198;SDS011;27868;45.184;5.786;2022-12-18T16:11:50;14.55;;;8.27;;
42198;SDS011;27868;45.184;5.786;2022-12-18T16:14:37;12.13;;;6.25;;
42198;SDS011;27868;45.184;5.786;2022-12-18T16:17:26;13.13;;;6.82;;
42198;SDS011;27868;45.184;5.786;2022-12-18T16:20:21;11.70;;;6.10;;
42198;SDS011;27868;45.184;5.786;2022-12-18T16:23:07;11.98;;;6.28;;
42198;SDS011;27868;45.184;5.786;2022-12-18T16:25:55;13.15;;;6.90;;
42198;SDS011;27868;45.184;5.786;2022-12-18T16:28:43;11.98;;;7.05;;
42198;SDS011;27868;45.184;5.786;2022-12-18T16:31:35;20.40;;;10.63;;
42198;SDS011;27868;45.184;5.786;2022-12-18T16:34:32;17.77;;;9.98;;
42198;SDS011;27868;45.184;5.786;2022-12-18T16:37:26;16.15;;;9.18;;
42198;SDS011;27868;45.184;5.786;2022-12-18T16:40:14;13.20;;;8.43;;
42198;SDS011;27868;45.184;5.786;2022-12-18T16:43:00;13.20;;;8.05;;
42198;SDS011;27868;45.184;5.786;2022-12-18T16:45:46;15.90;;;8.15;;
42198;SDS011;27868;45.184;5.786;2022-12-18T16:48:31;14.90;;;7.85;;
42198;SDS011;27868;45.184;5.786;2022-12-18T16:51:17;11.75;;;7.35;;
42198;SDS011;27868;45.184;5.786;2022-12-18T16:54:02;11.40;;;7.43;;
42198;SDS011;27868;45.184;5.786;2022-12-18T16:56:47;14.18;;;8.15;;
42198;SDS011;27868;45.184;5.786;2022-12-18T16:59:34;13.18;;;7.82;;
42198;SDS011;27868;45.184;5.786;2022-12-18T17:02:21;10.50;;;6.90;;
42198;SDS011;27868;45.184;5.786;2022-12-18T17:05:10;12.20;;;6.63;;
42198;SDS011;27868;45.184;5.786;2022-12-18T17:07:55;13.93;;;7.20;;
42198;SDS011;27868;45.184;5.786;2022-12-18T17:10:42;20.00;;;10.27;;
42198;SDS011;27868;45.184;5.786;2022-12-18T17:13:30;22.17;;;12.82;;
42198;SDS011;27868;45.184;5.786;2022-12-18T17:16:15;18.52;;;10.43;;
42198;SDS011;27868;45.184;5.786;2022-12-18T17:19:02;17.13;;;8.88;;
42198;SDS011;27868;45.184;5.786;2022-12-18T17:21:48;17.05;;;7.60;;
42198;SDS011;27868;45.184;5.786;2022-12-18T17:24:36;11.48;;;6.72;;
42198;SDS011;27868;45.184;5.786;2022-12-18T17:27:21;14.95;;;7.47;;
42198;SDS011;27868;45.184;5.786;2022-12-18T17:30:06;14.45;;;7.47;;
42198;SDS011;27868;45.184;5.786;2022-12-18T17:32:52;15.48;;;6.68;;
42198;SDS011;27868;45.184;5.786;2022-12-18T17:35:37;12.75;;;6.57;;
42198;SDS011;27868;45.184;5.786;2022-12-18T17:38:28;14.65;;;7.47;;
42198;SDS011;27868;45.184;5.786;2022-12-18T17:41:13;18.38;;;9.57;;
42198;SDS011;27868;45.184;5.786;2022-12-18T17:44:02;17.77;;;8.85;;
42198;SDS011;27868;45.184;5.786;2022-12-18T17:46:50;11.68;;;6.93;;
42198;SDS011;27868;45.184;5.786;2022-12-18T17:49:35;15.38;;;6.70;;
42198;SDS011;27868;45.184;5.786;2022-12-18T17:52:21;12.07;;;6.85;;
42198;SDS011;27868;45.184;5.786;2022-12-18T17:55:06;15.07;;;6.38;;
42198;SDS011;27868;45.184;5.786;2022-12-18T17:57:52;18.25;;;8.25;;
42198;SDS011;27868;45.184;5.786;2022-12-18T18:00:39;14.73;;;7.57;;
42198;SDS011;27868;45.184;5.786;2022-12-18T18:03:25;13.60;;;7.57;;
42198;SDS011;27868;45.184;5.786;2022-12-18T18:06:10;11.57;;;6.43;;
42198;SDS011;27868;45.184;5.786;2022-12-18T18:08:56;14.18;;;7.65;;
42198;SDS011;27868;45.184;5.786;2022-12-18T18:11:43;15.68;;;7.90;;
42198;SDS011;27868;45.184;5.786;2022-12-18T18:14:47;16.85;;;8.65;;
42198;SDS011;27868;45.184;5.786;2022-12-18T18:17:32;13.68;;;8.02;;
42198;SDS011;27868;45.184;5.786;2022-12-18T18:20:17;14.52;;;7.65;;
42198;SDS011;27868;45.184;5.786;2022-12-18T18:23:02;19.92;;;11.25;;
42198;SDS011;27868;45.184;5.786;2022-12-18T18:25:51;24.73;;;14.07;;
42198;SDS011;27868;45.184;5.786;2022-12-18T18:28:56;26.90;;;14.68;;
42198;SDS011;27868;45.184;5.786;2022-12-18T18:31:43;27.63;;;14.65;;
42198;SDS011;27868;45.184;5.786;2022-12-18T18:34:29;23.70;;;14.07;;
42198;SDS011;27868;45.184;5.786;2022-12-18T18:37:15;23.90;;;13.25;;
42198;SDS011;27868;45.184;5.786;2022-12-18T18:40:00;22.33;;;13.05;;
42198;SDS011;27868;45.184;5.786;2022-12-18T18:42:46;28.90;;;13.38;;
42198;SDS011;27868;45.184;5.786;2022-12-18T18:45:31;24.60;;;12.45;;
42198;SDS011;27868;45.184;5.786;2022-12-18T18:48:16;20.67;;;10.57;;
42198;SDS011;27868;45.184;5.786;2022-12-18T18:51:03;19.33;;;10.18;;
42198;SDS011;27868;45.184;5.786;2022-12-18T18:53:51;18.45;;;9.35;;
42198;SDS011;27868;45.184;5.786;2022-12-18T18:56:36;15.68;;;8.35;;
42198;SDS011;27868;45.184;5.786;2022-12-18T18:59:21;20.45;;;9.68;;
42198;SDS011;27868;45.184;5.786;2022-12-18T19:02:08;24.08;;;12.20;;
42198;SDS011;27868;45.184;5.786;2022-12-18T19:04:55;18.05;;;9.00;;
42198;SDS011;27868;45.184;5.786;2022-12-18T19:07:46;20.90;;;9.07;;
42198;SDS011;27868;45.184;5.786;2022-12-18T19:10:38;16.63;;;8.02;;
42198;SDS011;27868;45.184;5.786;2022-12-18T19:13:25;17.08;;;8.15;;
42198;SDS011;27868;45.184;5.786;2022-12-18T19:16:13;15.13;;;7.25;;
42198;SDS011;27868;45.184;5.786;2022-12-18T19:18:58;17.75;;;7.72;;
42198;SDS011;27868;45.184;5.786;2022-12-18T19:21:43;14.35;;;7.05;;
42198;SDS011;27868;45.184;5.786;2022-12-18T19:24:29;14.38;;;7.22;;
42198;SDS011;27868;45.184;5.786;2022-12-18T19:27:14;15.10;;;7.47;;
42198;SDS011;27868;45.184;5.786;2022-12-18T19:30:01;14.23;;;7.60;;
42198;SDS011;27868;45.184;5.786;2022-12-18T19:32:45;14.70;;;7.68;;
42198;SDS011;27868;45.184;5.786;2022-12-18T19:35:30;14.30;;;7.68;;
42198;SDS011;27868;45.184;5.786;2022-12-18T19:38:15;13.65;;;6.93;;
42198;SDS011;27868;45.184;5.786;2022-12-18T19:41:02;15.48;;;8.18;;
42198;SDS011;27868;45.184;5.786;2022-12-18T19:43:50;16.77;;;8.52;;
42198;SDS011;27868;45.184;5.786;2022-12-18T19:46:36;19.10;;;9.10;;
42198;SDS011;27868;45.184;5.786;2022-12-18T19:49:21;17.90;;;8.90;;
42198;SDS011;27868;45.184;5.786;2022-12-18T19:52:08;17.95;;;9.57;;
42198;SDS011;27868;45.184;5.786;2022-12-18T19:54:54;25.08;;;10.43;;
42198;SDS011;27868;45.184;5.786;2022-12-18T19:57:39;20.80;;;10.05;;
42198;SDS011;27868;45.184;5.786;2022-12-18T20:00:27;19.45;;;9.45;;
42198;SDS011;27868;45.184;5.786;2022-12-18T20:03:12;20.67;;;9.32;;
42198;SDS011;27868;45.184;5.786;2022-12-18T20:06:07;14.15;;;8.05;;
42198;SDS011;27868;45.184;5.786;2022-12-18T20:09:04;14.50;;;6.47;;
42198;SDS011;27868;45.184;5.786;2022-12-18T20:11:50;12.43;;;6.32;;